RXA3532 YDPO-YMML
Flight info
| Callsign | RXA3532 |
|---|---|
| Flight time | 1h 1m |
| Altitude | 20000 |
| Route | IRSOM V246 ONAGI H215 RAZZI W687 ML |
| Aircraft | SF34/M-SDFGR/S |
Departure
| Time | 2026-04-20 04:38 |
|---|---|
| Airport | Devonport Airport (YDPO) |
Arrival
| Time | 2026-04-20 05:39 |
|---|---|
| Airport | Melbourne Airport (YMML) |
| Time | Latitude | Longitude | Altitude | Speed | Heading |
|---|---|---|---|---|---|
| 2026-04-20 04:25 | -41.17123 | 146.42780 | 35 ft | 0 kts | 31° |
| 2026-04-20 04:36 | -41.17100 | 146.42745 | 36 ft | 9 kts | 278° |
| 2026-04-20 04:36 | -41.17025 | 146.42685 | 35 ft | 19 kts | 349° |
| 2026-04-20 04:36 | -41.16870 | 146.42623 | 36 ft | 16 kts | 309° |
| 2026-04-20 04:37 | -41.16883 | 146.42428 | 37 ft | 28 kts | 257° |
| 2026-04-20 04:37 | -41.16938 | 146.42129 | 36 ft | 38 kts | 255° |
| 2026-04-20 04:37 | -41.16952 | 146.42009 | 39 ft | 6 kts | 73° |
| 2026-04-20 04:37 | -41.16928 | 146.42142 | 36 ft | 35 kts | 76° |
| 2026-04-20 04:38 | -41.16822 | 146.42715 | 36 ft | 91 kts | 76° |
| 2026-04-20 04:38 | -41.16636 | 146.43725 | 92 ft | 132 kts | 76° |
| 2026-04-20 04:38 | -41.16419 | 146.45005 | 349 ft | 155 kts | 75° |
| 2026-04-20 04:38 | -41.15883 | 146.46326 | 639 ft | 173 kts | 39° |
| 2026-04-20 04:39 | -41.14727 | 146.46793 | 1037 ft | 183 kts | 355° |
| 2026-04-20 04:39 | -41.13578 | 146.46049 | 1453 ft | 192 kts | 314° |
| 2026-04-20 04:39 | -41.12792 | 146.44573 | 1884 ft | 200 kts | 303° |
| 2026-04-20 04:39 | -41.12036 | 146.42993 | 2319 ft | 205 kts | 303° |
| 2026-04-20 04:40 | -41.11127 | 146.41540 | 2750 ft | 208 kts | 326° |
| 2026-04-20 04:40 | -41.09775 | 146.40958 | 3183 ft | 210 kts | 353° |
| 2026-04-20 04:40 | -41.08315 | 146.40693 | 3619 ft | 214 kts | 351° |
| 2026-04-20 04:40 | -41.06840 | 146.40265 | 4040 ft | 222 kts | 346° |
| 2026-04-20 04:41 | -41.05323 | 146.39758 | 4472 ft | 228 kts | 347° |
| 2026-04-20 04:41 | -41.03764 | 146.39283 | 4910 ft | 232 kts | 347° |
| 2026-04-20 04:41 | -41.02184 | 146.38786 | 5344 ft | 235 kts | 346° |
| 2026-04-20 04:41 | -41.00590 | 146.38284 | 5773 ft | 236 kts | 346° |
| 2026-04-20 04:42 | -40.98984 | 146.37785 | 6208 ft | 238 kts | 346° |
| 2026-04-20 04:42 | -40.97372 | 146.37279 | 6646 ft | 238 kts | 346° |
| 2026-04-20 04:42 | -40.95776 | 146.36781 | 7058 ft | 239 kts | 346° |
| 2026-04-20 04:42 | -40.94153 | 146.36274 | 7472 ft | 240 kts | 346° |
| 2026-04-20 04:43 | -40.92521 | 146.35764 | 7888 ft | 242 kts | 345° |
| 2026-04-20 04:43 | -40.90893 | 146.35257 | 8399 ft | 239 kts | 345° |
| 2026-04-20 04:43 | -40.89285 | 146.34756 | 8952 ft | 237 kts | 345° |
| 2026-04-20 04:43 | -40.87687 | 146.34257 | 9517 ft | 235 kts | 345° |
| 2026-04-20 04:44 | -40.86096 | 146.33762 | 10090 ft | 235 kts | 344° |
| 2026-04-20 04:44 | -40.84508 | 146.33267 | 10618 ft | 235 kts | 344° |
| 2026-04-20 04:44 | -40.82941 | 146.32779 | 11130 ft | 235 kts | 344° |
| 2026-04-20 04:44 | -40.81346 | 146.32283 | 11659 ft | 236 kts | 344° |
| 2026-04-20 04:45 | -40.79746 | 146.31785 | 12195 ft | 237 kts | 343° |
| 2026-04-20 04:45 | -40.78141 | 146.31286 | 12728 ft | 238 kts | 343° |
| 2026-04-20 04:45 | -40.76528 | 146.30784 | 13290 ft | 239 kts | 343° |
| 2026-04-20 04:45 | -40.74907 | 146.30282 | 13856 ft | 240 kts | 343° |
| 2026-04-20 04:46 | -40.73277 | 146.29775 | 14395 ft | 241 kts | 343° |
| 2026-04-20 04:46 | -40.71639 | 146.29267 | 14906 ft | 242 kts | 343° |
| 2026-04-20 04:46 | -40.69997 | 146.28758 | 15423 ft | 243 kts | 343° |
| 2026-04-20 04:46 | -40.68375 | 146.28256 | 15941 ft | 243 kts | 342° |
| 2026-04-20 04:47 | -40.66732 | 146.27747 | 16488 ft | 242 kts | 342° |
| 2026-04-20 04:47 | -40.65092 | 146.27239 | 17029 ft | 242 kts | 342° |
| 2026-04-20 04:47 | -40.63455 | 146.26732 | 17573 ft | 242 kts | 342° |
| 2026-04-20 04:47 | -40.61823 | 146.26227 | 18135 ft | 240 kts | 342° |
| 2026-04-20 04:48 | -40.60200 | 146.25726 | 18691 ft | 238 kts | 342° |
| 2026-04-20 04:48 | -40.58592 | 146.25229 | 19185 ft | 236 kts | 342° |
| 2026-04-20 04:48 | -40.57000 | 146.24737 | 19685 ft | 234 kts | 342° |
| 2026-04-20 04:48 | -40.55429 | 146.24251 | 20191 ft | 231 kts | 342° |
| 2026-04-20 04:49 | -40.53874 | 146.23773 | 20705 ft | 228 kts | 341° |
| 2026-04-20 04:49 | -40.52343 | 146.23299 | 21226 ft | 224 kts | 341° |
| 2026-04-20 04:49 | -40.50859 | 146.22843 | 21747 ft | 220 kts | 341° |
| 2026-04-20 04:49 | -40.49389 | 146.22389 | 22282 ft | 214 kts | 341° |
| 2026-04-20 04:50 | -40.47958 | 146.21948 | 22822 ft | 208 kts | 341° |
| 2026-04-20 04:50 | -40.46588 | 146.21526 | 23360 ft | 195 kts | 341° |
| 2026-04-20 04:50 | -40.45310 | 146.21132 | 23721 ft | 189 kts | 340° |
| 2026-04-20 04:50 | -40.43929 | 146.20685 | 23411 ft | 223 kts | 341° |
| 2026-04-20 04:51 | -40.42242 | 146.20170 | 22649 ft | 276 kts | 343° |
| 2026-04-20 04:51 | -40.40198 | 146.19560 | 21871 ft | 318 kts | 343° |
| 2026-04-20 04:51 | -40.38085 | 146.18917 | 22432 ft | 303 kts | 343° |
| 2026-04-20 04:51 | -40.36087 | 146.18307 | 23102 ft | 287 kts | 343° |
| 2026-04-20 04:52 | -40.34181 | 146.17715 | 23487 ft | 280 kts | 342° |
| 2026-04-20 04:52 | -40.32269 | 146.17123 | 23224 ft | 295 kts | 343° |
| 2026-04-20 04:52 | -40.30216 | 146.16501 | 23078 ft | 306 kts | 343° |
| 2026-04-20 04:52 | -40.28187 | 146.15882 | 23527 ft | 290 kts | 343° |
| 2026-04-20 04:53 | -40.26260 | 146.15289 | 23743 ft | 284 kts | 343° |
| 2026-04-20 04:53 | -40.24285 | 146.14681 | 23306 ft | 301 kts | 343° |
| 2026-04-20 04:53 | -40.22202 | 146.14051 | 23173 ft | 308 kts | 343° |
| 2026-04-20 04:53 | -40.20171 | 146.13433 | 23674 ft | 289 kts | 343° |
| 2026-04-20 04:54 | -40.18248 | 146.12841 | 23791 ft | 284 kts | 343° |
| 2026-04-20 04:54 | -40.16263 | 146.12233 | 23266 ft | 304 kts | 343° |
| 2026-04-20 04:54 | -40.14189 | 146.11607 | 23190 ft | 309 kts | 343° |
| 2026-04-20 04:54 | -40.12168 | 146.10993 | 23750 ft | 287 kts | 343° |
| 2026-04-20 04:55 | -40.10257 | 146.10406 | 23805 ft | 284 kts | 343° |
| 2026-04-20 04:55 | -40.08262 | 146.09796 | 23217 ft | 307 kts | 343° |
| 2026-04-20 04:55 | -40.06150 | 146.09161 | 23204 ft | 309 kts | 343° |
| 2026-04-20 04:55 | -40.04138 | 146.08552 | 23798 ft | 286 kts | 343° |
| 2026-04-20 04:56 | -40.02168 | 146.08017 | 23482 ft | 298 kts | 346° |
| 2026-04-20 04:56 | -40.00100 | 146.07418 | 23130 ft | 311 kts | 342° |
| 2026-04-20 04:56 | -39.97966 | 146.06682 | 22621 ft | 323 kts | 342° |
| 2026-04-20 04:56 | -39.95741 | 146.05978 | 22116 ft | 334 kts | 345° |
| 2026-04-20 04:57 | -39.93444 | 146.05350 | 21589 ft | 339 kts | 344° |
| 2026-04-20 04:57 | -39.91179 | 146.04641 | 21076 ft | 340 kts | 343° |
| 2026-04-20 04:57 | -39.88875 | 146.03936 | 20554 ft | 340 kts | 344° |
| 2026-04-20 04:57 | -39.86569 | 146.03279 | 20023 ft | 338 kts | 344° |
| 2026-04-20 04:58 | -39.84287 | 146.02574 | 19487 ft | 333 kts | 343° |
| 2026-04-20 04:58 | -39.82149 | 146.01923 | 18949 ft | 301 kts | 343° |
| 2026-04-20 04:58 | -39.80221 | 146.01378 | 19026 ft | 269 kts | 343° |
| 2026-04-20 04:58 | -39.78465 | 146.00844 | 19185 ft | 251 kts | 342° |
| 2026-04-20 04:59 | -39.76796 | 146.00336 | 19339 ft | 242 kts | 342° |
| 2026-04-20 04:59 | -39.75133 | 145.99839 | 19503 ft | 254 kts | 342° |
| 2026-04-20 04:59 | -39.73365 | 145.99309 | 19669 ft | 267 kts | 343° |
| 2026-04-20 04:59 | -39.71545 | 145.98791 | 19771 ft | 278 kts | 343° |
| 2026-04-20 05:00 | -39.69616 | 145.98187 | 19799 ft | 291 kts | 343° |
| 2026-04-20 05:00 | -39.67596 | 145.97594 | 19745 ft | 303 kts | 344° |
| 2026-04-20 05:00 | -39.65511 | 145.96983 | 19691 ft | 311 kts | 343° |
| 2026-04-20 05:00 | -39.63384 | 145.96337 | 19633 ft | 316 kts | 343° |
| 2026-04-20 05:01 | -39.61227 | 145.95705 | 19580 ft | 317 kts | 344° |
| 2026-04-20 05:01 | -39.59105 | 145.95074 | 19522 ft | 310 kts | 343° |
| 2026-04-20 05:01 | -39.57024 | 145.94452 | 19458 ft | 305 kts | 343° |
| 2026-04-20 05:01 | -39.54957 | 145.93843 | 19392 ft | 303 kts | 343° |
| 2026-04-20 05:02 | -39.52912 | 145.93233 | 19350 ft | 300 kts | 343° |
| 2026-04-20 05:02 | -39.50881 | 145.92633 | 19344 ft | 298 kts | 343° |
| 2026-04-20 05:02 | -39.48891 | 145.92042 | 19336 ft | 297 kts | 343° |
| 2026-04-20 05:02 | -39.46881 | 145.91448 | 19325 ft | 296 kts | 343° |
| 2026-04-20 05:03 | -39.44881 | 145.90856 | 19327 ft | 295 kts | 343° |
| 2026-04-20 05:03 | -39.42880 | 145.90265 | 19327 ft | 294 kts | 343° |
| 2026-04-20 05:03 | -39.40887 | 145.89675 | 19326 ft | 294 kts | 343° |
| 2026-04-20 05:03 | -39.38894 | 145.89087 | 19325 ft | 294 kts | 343° |
| 2026-04-20 05:04 | -39.36902 | 145.88498 | 19319 ft | 294 kts | 343° |
| 2026-04-20 05:04 | -39.34907 | 145.87911 | 19318 ft | 294 kts | 343° |
| 2026-04-20 05:04 | -39.32921 | 145.87324 | 19317 ft | 293 kts | 343° |
| 2026-04-20 05:04 | -39.30953 | 145.86745 | 19317 ft | 293 kts | 343° |
| 2026-04-20 05:05 | -39.28964 | 145.86158 | 19316 ft | 293 kts | 343° |
| 2026-04-20 05:05 | -39.26974 | 145.85574 | 19316 ft | 293 kts | 343° |
| 2026-04-20 05:05 | -39.24985 | 145.84987 | 19315 ft | 294 kts | 343° |
| 2026-04-20 05:05 | -39.22991 | 145.84402 | 19312 ft | 294 kts | 343° |
| 2026-04-20 05:06 | -39.21000 | 145.83816 | 19311 ft | 293 kts | 343° |
| 2026-04-20 05:06 | -39.19008 | 145.83232 | 19312 ft | 293 kts | 343° |
| 2026-04-20 05:06 | -39.17017 | 145.82647 | 19308 ft | 294 kts | 343° |
| 2026-04-20 05:06 | -39.15025 | 145.82064 | 19311 ft | 293 kts | 343° |
| 2026-04-20 05:07 | -39.13033 | 145.81479 | 19306 ft | 293 kts | 343° |
| 2026-04-20 05:07 | -39.11044 | 145.80898 | 19305 ft | 293 kts | 343° |
| 2026-04-20 05:07 | -39.09052 | 145.80313 | 19305 ft | 293 kts | 343° |
| 2026-04-20 05:07 | -39.07088 | 145.79740 | 19305 ft | 293 kts | 343° |
| 2026-04-20 05:08 | -39.05100 | 145.79157 | 19295 ft | 293 kts | 343° |
| 2026-04-20 05:08 | -39.03108 | 145.78575 | 19300 ft | 293 kts | 343° |
| 2026-04-20 05:08 | -39.01119 | 145.77995 | 19297 ft | 293 kts | 343° |
| 2026-04-20 05:08 | -38.99129 | 145.77412 | 19297 ft | 293 kts | 343° |
| 2026-04-20 05:09 | -38.97140 | 145.76834 | 19303 ft | 293 kts | 343° |
| 2026-04-20 05:09 | -38.95150 | 145.76252 | 19302 ft | 293 kts | 343° |
| 2026-04-20 05:09 | -38.93161 | 145.75673 | 19302 ft | 293 kts | 343° |
| 2026-04-20 05:09 | -38.91168 | 145.75093 | 19302 ft | 293 kts | 343° |
| 2026-04-20 05:10 | -38.89176 | 145.74512 | 19302 ft | 294 kts | 343° |
| 2026-04-20 05:10 | -38.87186 | 145.73934 | 19302 ft | 294 kts | 343° |
| 2026-04-20 05:10 | -38.85218 | 145.73361 | 19302 ft | 294 kts | 343° |
| 2026-04-20 05:10 | -38.83227 | 145.72782 | 19302 ft | 294 kts | 343° |
| 2026-04-20 05:11 | -38.81232 | 145.72204 | 19299 ft | 294 kts | 343° |
| 2026-04-20 05:11 | -38.79240 | 145.71625 | 19300 ft | 294 kts | 343° |
| 2026-04-20 05:11 | -38.77247 | 145.71047 | 19300 ft | 294 kts | 343° |
| 2026-04-20 05:11 | -38.75253 | 145.70468 | 19300 ft | 294 kts | 343° |
| 2026-04-20 05:12 | -38.73260 | 145.69891 | 19299 ft | 294 kts | 343° |
| 2026-04-20 05:12 | -38.71266 | 145.69314 | 19296 ft | 294 kts | 344° |
| 2026-04-20 05:12 | -38.69269 | 145.68736 | 19296 ft | 294 kts | 343° |
| 2026-04-20 05:12 | -38.67948 | 145.68353 | 19296 ft | 294 kts | 344° |
| 2026-04-20 05:13 | -38.65308 | 145.67590 | 19299 ft | 294 kts | 343° |
| 2026-04-20 05:13 | -38.63310 | 145.67013 | 19294 ft | 294 kts | 343° |
| 2026-04-20 05:13 | -38.61313 | 145.66437 | 19293 ft | 294 kts | 343° |
| 2026-04-20 05:13 | -38.59317 | 145.65860 | 19288 ft | 294 kts | 343° |
| 2026-04-20 05:14 | -38.57995 | 145.65479 | 19291 ft | 294 kts | 344° |
| 2026-04-20 05:14 | -38.55998 | 145.64903 | 19292 ft | 294 kts | 343° |
| 2026-04-20 05:14 | -38.54001 | 145.64327 | 19293 ft | 295 kts | 344° |
| 2026-04-20 05:14 | -38.51326 | 145.63558 | 19293 ft | 295 kts | 344° |
| 2026-04-20 05:15 | -38.50001 | 145.63176 | 19293 ft | 295 kts | 344° |
| 2026-04-20 05:15 | -38.47996 | 145.62599 | 19293 ft | 295 kts | 344° |
| 2026-04-20 05:15 | -38.46026 | 145.61926 | 19286 ft | 290 kts | 332° |
| 2026-04-20 05:15 | -38.44325 | 145.60605 | 19291 ft | 286 kts | 320° |
| 2026-04-20 05:16 | -38.42672 | 145.59184 | 19295 ft | 288 kts | 325° |
| 2026-04-20 05:16 | -38.40895 | 145.57989 | 19298 ft | 289 kts | 329° |
| 2026-04-20 05:16 | -38.39092 | 145.56850 | 19297 ft | 289 kts | 328° |
| 2026-04-20 05:16 | -38.37358 | 145.55624 | 19296 ft | 289 kts | 326° |
| 2026-04-20 05:17 | -38.35601 | 145.54382 | 19288 ft | 290 kts | 328° |
| 2026-04-20 05:17 | -38.33821 | 145.53189 | 18930 ft | 282 kts | 327° |
| 2026-04-20 05:17 | -38.32129 | 145.52007 | 18541 ft | 274 kts | 327° |
| 2026-04-20 05:17 | -38.30463 | 145.50864 | 18111 ft | 270 kts | 328° |
| 2026-04-20 05:18 | -38.28814 | 145.49740 | 17688 ft | 268 kts | 327° |
| 2026-04-20 05:18 | -38.27152 | 145.48592 | 17278 ft | 279 kts | 327° |
| 2026-04-20 05:18 | -38.25415 | 145.47400 | 16868 ft | 288 kts | 328° |
| 2026-04-20 05:18 | -38.23640 | 145.46185 | 16481 ft | 292 kts | 328° |
| 2026-04-20 05:19 | -38.21848 | 145.44956 | 16094 ft | 293 kts | 328° |
| 2026-04-20 05:19 | -38.20051 | 145.43726 | 15710 ft | 294 kts | 328° |
| 2026-04-20 05:19 | -38.18276 | 145.42510 | 15336 ft | 293 kts | 328° |
| 2026-04-20 05:19 | -38.16481 | 145.41283 | 14958 ft | 293 kts | 328° |
| 2026-04-20 05:20 | -38.14689 | 145.40057 | 14584 ft | 292 kts | 328° |
| 2026-04-20 05:20 | -38.12904 | 145.38839 | 14165 ft | 284 kts | 328° |
| 2026-04-20 05:20 | -38.11249 | 145.37706 | 13645 ft | 256 kts | 328° |
| 2026-04-20 05:20 | -38.09760 | 145.36678 | 13113 ft | 233 kts | 328° |
| 2026-04-20 05:21 | -38.08392 | 145.35747 | 12580 ft | 214 kts | 328° |
| 2026-04-20 05:21 | -38.07101 | 145.34871 | 12056 ft | 208 kts | 328° |
| 2026-04-20 05:21 | -38.05838 | 145.34008 | 11542 ft | 205 kts | 328° |
| 2026-04-20 05:21 | -38.04590 | 145.33156 | 11044 ft | 203 kts | 328° |
| 2026-04-20 05:22 | -38.03371 | 145.32327 | 10553 ft | 200 kts | 328° |
| 2026-04-20 05:22 | -38.02152 | 145.31495 | 10066 ft | 198 kts | 329° |
| 2026-04-20 05:22 | -38.01019 | 145.30549 | 9538 ft | 192 kts | 311° |
| 2026-04-20 05:22 | -38.00182 | 145.29279 | 9316 ft | 182 kts | 307° |
| 2026-04-20 05:23 | -37.99363 | 145.28108 | 9289 ft | 177 kts | 311° |
| 2026-04-20 05:23 | -37.98418 | 145.26862 | 9304 ft | 213 kts | 312° |
| 2026-04-20 05:23 | -37.97279 | 145.25497 | 9300 ft | 238 kts | 324° |
| 2026-04-20 05:23 | -37.95650 | 145.24820 | 9275 ft | 260 kts | 355° |
| 2026-04-20 05:24 | -37.93811 | 145.24744 | 9180 ft | 269 kts | 350° |
| 2026-04-20 05:24 | -37.92074 | 145.23890 | 9070 ft | 267 kts | 323° |
| 2026-04-20 05:24 | -37.90596 | 145.22689 | 9016 ft | 252 kts | 338° |
| 2026-04-20 05:24 | -37.88894 | 145.22211 | 9015 ft | 243 kts | 343° |
| 2026-04-20 05:25 | -37.87379 | 145.21399 | 8859 ft | 235 kts | 327° |
| 2026-04-20 05:25 | -37.86028 | 145.20280 | 8615 ft | 230 kts | 324° |
| 2026-04-20 05:25 | -37.84657 | 145.19242 | 8308 ft | 231 kts | 329° |
| 2026-04-20 05:25 | -37.83197 | 145.18297 | 7722 ft | 238 kts | 331° |
| 2026-04-20 05:26 | -37.81730 | 145.17337 | 7143 ft | 237 kts | 329° |
| 2026-04-20 05:26 | -37.80286 | 145.16351 | 6573 ft | 235 kts | 330° |
| 2026-04-20 05:26 | -37.78845 | 145.15400 | 5977 ft | 232 kts | 331° |
| 2026-04-20 05:26 | -37.77426 | 145.14457 | 5385 ft | 228 kts | 330° |
| 2026-04-20 05:27 | -37.76045 | 145.13533 | 5045 ft | 218 kts | 330° |
| 2026-04-20 05:27 | -37.74732 | 145.12664 | 5007 ft | 208 kts | 331° |
| 2026-04-20 05:27 | -37.73489 | 145.11834 | 5000 ft | 203 kts | 330° |
| 2026-04-20 05:27 | -37.72247 | 145.11011 | 4998 ft | 201 kts | 331° |
| 2026-04-20 05:28 | -37.70909 | 145.10226 | 5003 ft | 219 kts | 334° |
| 2026-04-20 05:28 | -37.69496 | 145.09427 | 5016 ft | 224 kts | 333° |
| 2026-04-20 05:28 | -37.68101 | 145.08579 | 5013 ft | 221 kts | 334° |
| 2026-04-20 05:28 | -37.66714 | 145.07776 | 5019 ft | 218 kts | 334° |
| 2026-04-20 05:29 | -37.65338 | 145.06970 | 5017 ft | 218 kts | 333° |
| 2026-04-20 05:29 | -37.63968 | 145.06157 | 5019 ft | 218 kts | 334° |
| 2026-04-20 05:29 | -37.62595 | 145.05359 | 5017 ft | 217 kts | 333° |
| 2026-04-20 05:29 | -37.61246 | 145.04566 | 5015 ft | 217 kts | 333° |
| 2026-04-20 05:30 | -37.59875 | 145.03761 | 5013 ft | 218 kts | 333° |
| 2026-04-20 05:30 | -37.58498 | 145.02956 | 5012 ft | 218 kts | 334° |
| 2026-04-20 05:30 | -37.57122 | 145.02149 | 5016 ft | 218 kts | 334° |
| 2026-04-20 05:30 | -37.55738 | 145.01337 | 4938 ft | 222 kts | 334° |
| 2026-04-20 05:31 | -37.54327 | 145.00507 | 4763 ft | 225 kts | 333° |
| 2026-04-20 05:31 | -37.52908 | 144.99630 | 4530 ft | 229 kts | 333° |
| 2026-04-20 05:31 | -37.51473 | 144.98755 | 4311 ft | 230 kts | 333° |
| 2026-04-20 05:31 | -37.50025 | 144.97888 | 4088 ft | 231 kts | 334° |
| 2026-04-20 05:32 | -37.48575 | 144.97005 | 3866 ft | 232 kts | 334° |
| 2026-04-20 05:32 | -37.47138 | 144.96134 | 3651 ft | 233 kts | 334° |
| 2026-04-20 05:32 | -37.45676 | 144.95247 | 3425 ft | 231 kts | 334° |
| 2026-04-20 05:32 | -37.44319 | 144.94272 | 3194 ft | 221 kts | 316° |
| 2026-04-20 05:33 | -37.43572 | 144.92665 | 3063 ft | 210 kts | 279° |
| 2026-04-20 05:33 | -37.43721 | 144.90914 | 3023 ft | 200 kts | 242° |
| 2026-04-20 05:33 | -37.44575 | 144.89599 | 3011 ft | 193 kts | 227° |
| 2026-04-20 05:33 | -37.45115 | 144.88104 | 3003 ft | 186 kts | 258° |
| 2026-04-20 05:34 | -37.45302 | 144.86409 | 3014 ft | 203 kts | 261° |
| 2026-04-20 05:34 | -37.45526 | 144.84631 | 3016 ft | 209 kts | 256° |
| 2026-04-20 05:34 | -37.46102 | 144.81020 | 3006 ft | 210 kts | 246° |
| 2026-04-20 05:35 | -37.46998 | 144.79624 | 3009 ft | 207 kts | 211° |
| 2026-04-20 05:35 | -37.48365 | 144.79115 | 3017 ft | 207 kts | 186° |
| 2026-04-20 05:35 | -37.49778 | 144.79297 | 3012 ft | 206 kts | 160° |
| 2026-04-20 05:35 | -37.50974 | 144.79970 | 3011 ft | 179 kts | 154° |
| 2026-04-20 05:36 | -37.52041 | 144.80646 | 2975 ft | 166 kts | 158° |
| 2026-04-20 05:36 | -37.53096 | 144.81175 | 2986 ft | 162 kts | 162° |
| 2026-04-20 05:36 | -37.54199 | 144.81457 | 2943 ft | 163 kts | 172° |
| 2026-04-20 05:36 | -37.55323 | 144.81667 | 2805 ft | 166 kts | 173° |
| 2026-04-20 05:37 | -37.56483 | 144.81859 | 2624 ft | 169 kts | 174° |
| 2026-04-20 05:37 | -37.57625 | 144.82053 | 2409 ft | 159 kts | 172° |
| 2026-04-20 05:37 | -37.58685 | 144.82251 | 2233 ft | 150 kts | 174° |
| 2026-04-20 05:37 | -37.59688 | 144.82434 | 2064 ft | 145 kts | 171° |
| 2026-04-20 05:38 | -37.60665 | 144.82619 | 1691 ft | 138 kts | 173° |
| 2026-04-20 05:38 | -37.61613 | 144.82805 | 1367 ft | 130 kts | 171° |
| 2026-04-20 05:38 | -37.62474 | 144.82965 | 1147 ft | 124 kts | 175° |
| 2026-04-20 05:38 | -37.63326 | 144.83110 | 983 ft | 119 kts | 172° |
| 2026-04-20 05:39 | -37.64117 | 144.83267 | 712 ft | 114 kts | 172° |
| 2026-04-20 05:39 | -37.64919 | 144.83421 | 568 ft | 116 kts | 172° |
| 2026-04-20 05:39 | -37.65656 | 144.83549 | 416 ft | 96 kts | 171° |
| 2026-04-20 05:39 | -37.66048 | 144.83625 | 397 ft | 35 kts | 171° |
| 2026-04-20 05:40 | -37.66291 | 144.83672 | 393 ft | 35 kts | 172° |
| 2026-04-20 05:40 | -37.66480 | 144.83742 | 389 ft | 25 kts | 128° |
| 2026-04-20 05:40 | -37.66508 | 144.83867 | 384 ft | 0 kts | 94° |
| 2026-04-20 05:41 | -37.66509 | 144.83873 | 384 ft | 0 kts | 94° |
| 2026-04-20 05:42 | -37.66509 | 144.83875 | 384 ft | 3 kts | 94° |
| 2026-04-20 05:42 | -37.66549 | 144.83940 | 381 ft | 16 kts | 172° |
| 2026-04-20 05:42 | -37.66687 | 144.83966 | 379 ft | 24 kts | 172° |
| 2026-04-20 05:42 | -37.66875 | 144.84000 | 375 ft | 30 kts | 172° |
| 2026-04-20 05:43 | -37.67029 | 144.84028 | 371 ft | 5 kts | 171° |
| 2026-04-20 05:43 | -37.67057 | 144.84034 | 371 ft | 8 kts | 170° |
| 2026-04-20 05:43 | -37.67125 | 144.84046 | 368 ft | 16 kts | 174° |
| 2026-04-20 05:43 | -37.67268 | 144.84072 | 364 ft | 25 kts | 172° |
| 2026-04-20 05:44 | -37.67442 | 144.84104 | 359 ft | 11 kts | 169° |
| 2026-04-20 05:44 | -37.67501 | 144.84159 | 359 ft | 14 kts | 96° |
| 2026-04-20 05:44 | -37.67538 | 144.84309 | 354 ft | 23 kts | 144° |
| 2026-04-20 05:44 | -37.67610 | 144.84345 | 354 ft | 1 kts | 174° |
| 2026-04-20 05:45 | -37.67629 | 144.84350 | 352 ft | 8 kts | 160° |
| 2026-04-20 05:45 | -37.67647 | 144.84435 | 350 ft | 0 kts | 82° |
| 2026-04-20 05:45 | -37.67646 | 144.84443 | 350 ft | 4 kts | 79° |
| 2026-04-20 05:45 | -37.67645 | 144.84448 | 350 ft | 0 kts | 82° |